Garfield, Kansas
Current Conditions -  °F | °C
As of 10:55 PM on Wednesday 22 Oct 2014 (Local Time) from KGBD Reporting Station
Few Clouds Few Clouds  
Wind Chill: 61°   Ceiling: Unl
Heat Index: 61°   Visibility: 10mi
Dew Point: 54°   Wind: 13mph
Humidity: 77%   Direction: 200°SSW
Pressure: 30.06"   Gusts: NA
Location:  38.08°N, 99.24°W
Report Text: KGBD 230355Z AUTO 20011KT 10SM FEW110 16/12 A3006 RMK AO1 LTG DSNT S TSE42
Loading
Personal Weather Stations






























Interactive Weather Map
Tropical Storm Tracking
New forecast layout! Learn more

10-Day Weather Forecast

Advertisements
Track Severe Weather on mobile